sensor_id;sensor_type;location;lat;lon;timestamp;temperature;humidity
78896;HTU21D;68284;59.124;37.910;2023-07-31T00:00:54;20.96;64.98
78896;HTU21D;68284;59.124;37.910;2023-07-31T00:03:20;20.88;65.37
78896;HTU21D;68284;59.124;37.910;2023-07-31T00:05:47;20.91;65.52
78896;HTU21D;68284;59.124;37.910;2023-07-31T00:08:14;20.99;65.41
78896;HTU21D;68284;59.124;37.910;2023-07-31T00:10:40;21.00;65.37
78896;HTU21D;68284;59.124;37.910;2023-07-31T00:13:06;20.96;65.45
78896;HTU21D;68284;59.124;37.910;2023-07-31T00:15:34;20.92;65.58
78896;HTU21D;68284;59.124;37.910;2023-07-31T00:18:01;20.85;65.81
78896;HTU21D;68284;59.124;37.910;2023-07-31T00:20:27;20.81;66.06
78896;HTU21D;68284;59.124;37.910;2023-07-31T00:22:53;20.87;66.07
78896;HTU21D;68284;59.124;37.910;2023-07-31T00:25:20;20.91;66.01
78896;HTU21D;68284;59.124;37.910;2023-07-31T00:27:46;20.95;65.90
78896;HTU21D;68284;59.124;37.910;2023-07-31T00:30:12;21.01;65.82
78896;HTU21D;68284;59.124;37.910;2023-07-31T00:32:39;21.06;65.69
78896;HTU21D;68284;59.124;37.910;2023-07-31T00:35:05;21.05;65.64
78896;HTU21D;68284;59.124;37.910;2023-07-31T00:37:31;21.05;65.72
78896;HTU21D;68284;59.124;37.910;2023-07-31T00:39:58;21.02;65.78
78896;HTU21D;68284;59.124;37.910;2023-07-31T00:42:24;20.95;65.98
78896;HTU21D;68284;59.124;37.910;2023-07-31T00:44:50;20.91;66.11
78896;HTU21D;68284;59.124;37.910;2023-07-31T00:47:17;20.92;66.15
78896;HTU21D;68284;59.124;37.910;2023-07-31T00:49:44;20.79;66.43
78896;HTU21D;68284;59.124;37.910;2023-07-31T00:52:10;20.73;66.69
78896;HTU21D;68284;59.124;37.910;2023-07-31T00:54:36;20.72;66.77
78896;HTU21D;68284;59.124;37.910;2023-07-31T00:57:03;20.63;67.01
78896;HTU21D;68284;59.124;37.910;2023-07-31T00:59:31;20.59;67.27
78896;HTU21D;68284;59.124;37.910;2023-07-31T01:01:57;20.61;67.31
78896;HTU21D;68284;59.124;37.910;2023-07-31T01:04:23;20.60;67.36
78896;HTU21D;68284;59.124;37.910;2023-07-31T01:07:02;20.54;67.53
78896;HTU21D;68284;59.124;37.910;2023-07-31T01:12:15;20.44;67.99
78896;HTU21D;68284;59.124;37.910;2023-07-31T01:15:12;20.44;68.08
78896;HTU21D;68284;59.124;37.910;2023-07-31T01:17:41;20.45;68.01
78896;HTU21D;68284;59.124;37.910;2023-07-31T01:20:21;20.50;67.87
78896;HTU21D;68284;59.124;37.910;2023-07-31T01:26:10;20.53;67.84
78896;HTU21D;68284;59.124;37.910;2023-07-31T01:31:23;20.60;67.67
78896;HTU21D;68284;59.124;37.910;2023-07-31T01:33:53;20.64;67.48
78896;HTU21D;68284;59.124;37.910;2023-07-31T01:36:20;20.63;67.41
78896;HTU21D;68284;59.124;37.910;2023-07-31T01:38:46;20.62;67.52
78896;HTU21D;68284;59.124;37.910;2023-07-31T01:41:12;20.63;67.42
78896;HTU21D;68284;59.124;37.910;2023-07-31T01:43:39;20.64;67.43
78896;HTU21D;68284;59.124;37.910;2023-07-31T01:46:06;20.64;67.41
78896;HTU21D;68284;59.124;37.910;2023-07-31T01:48:32;20.64;67.49
78896;HTU21D;68284;59.124;37.910;2023-07-31T01:51:01;20.70;67.33
78896;HTU21D;68284;59.124;37.910;2023-07-31T01:53:30;20.76;67.29
78896;HTU21D;68284;59.124;37.910;2023-07-31T01:55:56;20.81;66.88
78896;HTU21D;68284;59.124;37.910;2023-07-31T01:58:23;20.84;66.73
78896;HTU21D;68284;59.124;37.910;2023-07-31T02:00:49;20.86;66.56
78896;HTU21D;68284;59.124;37.910;2023-07-31T02:03:16;20.91;66.33
78896;HTU21D;68284;59.124;37.910;2023-07-31T02:05:48;20.99;66.11
78896;HTU21D;68284;59.124;37.910;2023-07-31T02:08:15;21.10;65.74
78896;HTU21D;68284;59.124;37.910;2023-07-31T02:10:44;21.21;65.40
78896;HTU21D;68284;59.124;37.910;2023-07-31T02:13:10;21.30;65.07
78896;HTU21D;68284;59.124;37.910;2023-07-31T02:15:37;21.34;64.85
78896;HTU21D;68284;59.124;37.910;2023-07-31T02:18:03;21.40;64.60
78896;HTU21D;68284;59.124;37.910;2023-07-31T02:20:29;21.46;64.40
78896;HTU21D;68284;59.124;37.910;2023-07-31T02:22:56;21.52;64.24
78896;HTU21D;68284;59.124;37.910;2023-07-31T02:25:22;21.59;63.98
78896;HTU21D;68284;59.124;37.910;2023-07-31T02:27:49;21.61;63.86
78896;HTU21D;68284;59.124;37.910;2023-07-31T02:30:15;21.60;63.86
78896;HTU21D;68284;59.124;37.910;2023-07-31T02:32:42;21.60;63.94
78896;HTU21D;68284;59.124;37.910;2023-07-31T02:35:08;21.63;63.89
78896;HTU21D;68284;59.124;37.910;2023-07-31T02:37:38;21.63;63.94
78896;HTU21D;68284;59.124;37.910;2023-07-31T02:40:10;21.59;64.05
78896;HTU21D;68284;59.124;37.910;2023-07-31T02:42:37;21.53;64.28
78896;HTU21D;68284;59.124;37.910;2023-07-31T02:45:05;21.53;64.37
78896;HTU21D;68284;59.124;37.910;2023-07-31T02:47:31;21.57;64.38
78896;HTU21D;68284;59.124;37.910;2023-07-31T02:49:58;21.55;64.47
78896;HTU21D;68284;59.124;37.910;2023-07-31T02:52:30;21.59;64.42
78896;HTU21D;68284;59.124;37.910;2023-07-31T02:54:59;21.66;64.29
78896;HTU21D;68284;59.124;37.910;2023-07-31T02:57:28;21.70;64.09
78896;HTU21D;68284;59.124;37.910;2023-07-31T02:59:55;21.61;64.24
78896;HTU21D;68284;59.124;37.910;2023-07-31T03:02:21;21.50;64.53
78896;HTU21D;68284;59.124;37.910;2023-07-31T03:04:50;21.39;64.85
78896;HTU21D;68284;59.124;37.910;2023-07-31T03:07:16;21.33;65.08
78896;HTU21D;68284;59.124;37.910;2023-07-31T03:09:47;21.33;65.19
78896;HTU21D;68284;59.124;37.910;2023-07-31T03:12:13;21.36;65.08
78896;HTU21D;68284;59.124;37.910;2023-07-31T03:14:41;21.38;65.00
78896;HTU21D;68284;59.124;37.910;2023-07-31T03:17:11;21.42;64.92
78896;HTU21D;68284;59.124;37.910;2023-07-31T03:19:38;21.39;64.86
78896;HTU21D;68284;59.124;37.910;2023-07-31T03:22:05;21.29;65.11
78896;HTU21D;68284;59.124;37.910;2023-07-31T03:24:31;21.19;65.36
78896;HTU21D;68284;59.124;37.910;2023-07-31T03:26:57;21.18;65.51
78896;HTU21D;68284;59.124;37.910;2023-07-31T03:29:25;21.20;65.50
78896;HTU21D;68284;59.124;37.910;2023-07-31T03:31:53;21.22;65.31
78896;HTU21D;68284;59.124;37.910;2023-07-31T03:34:22;21.18;65.28
78896;HTU21D;68284;59.124;37.910;2023-07-31T03:36:48;21.17;65.33
78896;HTU21D;68284;59.124;37.910;2023-07-31T03:39:15;21.19;65.32
78896;HTU21D;68284;59.124;37.910;2023-07-31T03:41:41;21.16;65.37
78896;HTU21D;68284;59.124;37.910;2023-07-31T03:44:07;21.18;65.32
78896;HTU21D;68284;59.124;37.910;2023-07-31T03:46:33;21.17;65.37
78896;HTU21D;68284;59.124;37.910;2023-07-31T03:49:00;21.19;65.41
78896;HTU21D;68284;59.124;37.910;2023-07-31T03:51:26;21.24;65.25
78896;HTU21D;68284;59.124;37.910;2023-07-31T03:53:53;21.23;65.21
78896;HTU21D;68284;59.124;37.910;2023-07-31T03:56:19;21.23;65.27
78896;HTU21D;68284;59.124;37.910;2023-07-31T03:58:45;21.24;65.24
78896;HTU21D;68284;59.124;37.910;2023-07-31T04:01:11;21.25;65.12
78896;HTU21D;68284;59.124;37.910;2023-07-31T04:03:38;21.29;65.10
78896;HTU21D;68284;59.124;37.910;2023-07-31T04:06:04;21.40;64.79
78896;HTU21D;68284;59.124;37.910;2023-07-31T04:08:30;21.48;64.49
78896;HTU21D;68284;59.124;37.910;2023-07-31T04:10:56;21.57;64.24
78896;HTU21D;68284;59.124;37.910;2023-07-31T04:13:22;21.62;64.01
78896;HTU21D;68284;59.124;37.910;2023-07-31T04:15:51;21.68;63.87
78896;HTU21D;68284;59.124;37.910;2023-07-31T04:18:18;21.76;63.63
78896;HTU21D;68284;59.124;37.910;2023-07-31T04:20:44;21.89;63.29
78896;HTU21D;68284;59.124;37.910;2023-07-31T04:23:10;22.05;62.80
78896;HTU21D;68284;59.124;37.910;2023-07-31T04:25:37;22.06;62.49
78896;HTU21D;68284;59.124;37.910;2023-07-31T04:28:03;22.06;62.44
78896;HTU21D;68284;59.124;37.910;2023-07-31T04:30:31;22.13;62.21
78896;HTU21D;68284;59.124;37.910;2023-07-31T04:32:57;22.21;62.04
78896;HTU21D;68284;59.124;37.910;2023-07-31T04:35:24;22.31;61.89
78896;HTU21D;68284;59.124;37.910;2023-07-31T04:37:51;22.36;61.59
78896;HTU21D;68284;59.124;37.910;2023-07-31T04:40:18;22.39;61.53
78896;HTU21D;68284;59.124;37.910;2023-07-31T04:42:47;22.46;61.34
78896;HTU21D;68284;59.124;37.910;2023-07-31T04:45:14;22.50;61.23
78896;HTU21D;68284;59.124;37.910;2023-07-31T04:47:40;22.65;60.99
78896;HTU21D;68284;59.124;37.910;2023-07-31T04:50:08;22.79;60.63
78896;HTU21D;68284;59.124;37.910;2023-07-31T04:52:35;22.91;60.41
78896;HTU21D;68284;59.124;37.910;2023-07-31T04:55:01;22.99;60.23
78896;HTU21D;68284;59.124;37.910;2023-07-31T04:57:35;23.10;60.05
78896;HTU21D;68284;59.124;37.910;2023-07-31T05:00:04;23.16;59.70
78896;HTU21D;68284;59.124;37.910;2023-07-31T05:02:34;23.18;59.57
78896;HTU21D;68284;59.124;37.910;2023-07-31T05:08:35;23.21;59.89
78896;HTU21D;68284;59.124;37.910;2023-07-31T05:11:02;23.27;59.70
78896;HTU21D;68284;59.124;37.910;2023-07-31T05:13:30;23.31;59.57
78896;HTU21D;68284;59.124;37.910;2023-07-31T05:15:57;23.36;59.47
78896;HTU21D;68284;59.124;37.910;2023-07-31T05:18:29;23.39;59.35
78896;HTU21D;68284;59.124;37.910;2023-07-31T05:21:02;23.45;59.22
78896;HTU21D;68284;59.124;37.910;2023-07-31T05:23:29;23.59;58.84
78896;HTU21D;68284;59.124;37.910;2023-07-31T05:26:05;23.67;58.56
78896;HTU21D;68284;59.124;37.910;2023-07-31T05:28:34;23.74;58.83
78896;HTU21D;68284;59.124;37.910;2023-07-31T05:31:01;23.74;58.64
78896;HTU21D;68284;59.124;37.910;2023-07-31T05:33:27;23.69;58.50
78896;HTU21D;68284;59.124;37.910;2023-07-31T05:35:56;23.64;58.46
78896;HTU21D;68284;59.124;37.910;2023-07-31T05:38:22;23.58;58.62
78896;HTU21D;68284;59.124;37.910;2023-07-31T05:40:49;23.55;58.88
78896;HTU21D;68284;59.124;37.910;2023-07-31T05:43:15;23.59;58.53
78896;HTU21D;68284;59.124;37.910;2023-07-31T05:45:46;23.56;58.37
78896;HTU21D;68284;59.124;37.910;2023-07-31T05:48:14;23.45;58.69
78896;HTU21D;68284;59.124;37.910;2023-07-31T05:50:44;23.42;58.71
78896;HTU21D;68284;59.124;37.910;2023-07-31T05:53:12;23.39;58.91
78896;HTU21D;68284;59.124;37.910;2023-07-31T05:55:38;23.41;58.64
78896;HTU21D;68284;59.124;37.910;2023-07-31T05:58:05;23.41;58.70
78896;HTU21D;68284;59.124;37.910;2023-07-31T06:00:31;23.40;58.67
78896;HTU21D;68284;59.124;37.910;2023-07-31T06:02:58;23.38;58.56
78896;HTU21D;68284;59.124;37.910;2023-07-31T06:05:24;23.37;59.03
78896;HTU21D;68284;59.124;37.910;2023-07-31T06:07:51;23.45;58.93
78896;HTU21D;68284;59.124;37.910;2023-07-31T06:10:19;23.47;58.60
78896;HTU21D;68284;59.124;37.910;2023-07-31T06:12:47;23.50;58.58
78896;HTU21D;68284;59.124;37.910;2023-07-31T06:15:13;23.49;58.75
78896;HTU21D;68284;59.124;37.910;2023-07-31T06:17:41;23.52;58.64
78896;HTU21D;68284;59.124;37.910;2023-07-31T06:20:10;23.45;59.02
78896;HTU21D;68284;59.124;37.910;2023-07-31T06:22:36;23.41;58.89
78896;HTU21D;68284;59.124;37.910;2023-07-31T06:25:02;23.38;59.32
78896;HTU21D;68284;59.124;37.910;2023-07-31T06:27:30;23.41;59.25
78896;HTU21D;68284;59.124;37.910;2023-07-31T06:29:57;23.46;58.78
78896;HTU21D;68284;59.124;37.910;2023-07-31T06:32:24;23.49;58.55
78896;HTU21D;68284;59.124;37.910;2023-07-31T06:34:51;23.56;58.41
78896;HTU21D;68284;59.124;37.910;2023-07-31T06:37:20;23.59;58.90
78896;HTU21D;68284;59.124;37.910;2023-07-31T06:39:47;23.65;58.70
78896;HTU21D;68284;59.124;37.910;2023-07-31T06:42:13;23.75;58.16
78896;HTU21D;68284;59.124;37.910;2023-07-31T06:44:40;23.87;57.71
78896;HTU21D;68284;59.124;37.910;2023-07-31T06:47:07;24.01;57.81
78896;HTU21D;68284;59.124;37.910;2023-07-31T06:49:40;24.14;57.80
78896;HTU21D;68284;59.124;37.910;2023-07-31T06:52:08;24.32;57.48
78896;HTU21D;68284;59.124;37.910;2023-07-31T06:54:37;24.48;57.00
78896;HTU21D;68284;59.124;37.910;2023-07-31T06:57:09;24.61;56.59
78896;HTU21D;68284;59.124;37.910;2023-07-31T06:59:37;24.66;56.48
78896;HTU21D;68284;59.124;37.910;2023-07-31T07:02:09;24.66;56.39
78896;HTU21D;68284;59.124;37.910;2023-07-31T07:04:40;24.66;56.29
78896;HTU21D;68284;59.124;37.910;2023-07-31T07:07:06;24.69;55.84
78896;HTU21D;68284;59.124;37.910;2023-07-31T07:09:34;24.66;55.63
78896;HTU21D;68284;59.124;37.910;2023-07-31T07:12:04;24.68;55.83
78896;HTU21D;68284;59.124;37.910;2023-07-31T07:14:30;24.76;55.72
78896;HTU21D;68284;59.124;37.910;2023-07-31T07:16:56;24.84;55.48
78896;HTU21D;68284;59.124;37.910;2023-07-31T07:19:23;24.89;55.30
78896;HTU21D;68284;59.124;37.910;2023-07-31T07:21:50;24.92;55.26
78896;HTU21D;68284;59.124;37.910;2023-07-31T07:24:19;25.01;54.76
78896;HTU21D;68284;59.124;37.910;2023-07-31T07:26:45;25.06;54.70
78896;HTU21D;68284;59.124;37.910;2023-07-31T07:29:11;25.14;54.46
78896;HTU21D;68284;59.124;37.910;2023-07-31T07:31:38;25.17;53.92
78896;HTU21D;68284;59.124;37.910;2023-07-31T07:34:04;25.17;54.07
78896;HTU21D;68284;59.124;37.910;2023-07-31T07:36:31;25.17;54.02
78896;HTU21D;68284;59.124;37.910;2023-07-31T07:38:58;25.16;54.13
78896;HTU21D;68284;59.124;37.910;2023-07-31T07:41:25;25.24;53.81
78896;HTU21D;68284;59.124;37.910;2023-07-31T07:43:51;25.29;53.91
78896;HTU21D;68284;59.124;37.910;2023-07-31T07:46:18;25.35;53.83
78896;HTU21D;68284;59.124;37.910;2023-07-31T07:48:44;25.43;53.59
78896;HTU21D;68284;59.124;37.910;2023-07-31T07:51:17;25.43;53.52
78896;HTU21D;68284;59.124;37.910;2023-07-31T07:53:43;25.40;53.59
78896;HTU21D;68284;59.124;37.910;2023-07-31T07:56:33;25.40;53.60
78896;HTU21D;68284;59.124;37.910;2023-07-31T07:59:00;25.39;53.52
78896;HTU21D;68284;59.124;37.910;2023-07-31T08:01:30;25.36;53.55
78896;HTU21D;68284;59.124;37.910;2023-07-31T08:03:58;25.32;53.34
78896;HTU21D;68284;59.124;37.910;2023-07-31T08:06:24;25.31;53.36
78896;HTU21D;68284;59.124;37.910;2023-07-31T08:08:56;25.23;53.43
78896;HTU21D;68284;59.124;37.910;2023-07-31T08:11:41;25.17;53.46
78896;HTU21D;68284;59.124;37.910;2023-07-31T08:14:10;25.19;53.39
78896;HTU21D;68284;59.124;37.910;2023-07-31T08:16:38;25.28;53.34
78896;HTU21D;68284;59.124;37.910;2023-07-31T08:19:07;25.37;53.02
78896;HTU21D;68284;59.124;37.910;2023-07-31T08:21:37;25.47;53.00
78896;HTU21D;68284;59.124;37.910;2023-07-31T08:24:06;25.56;52.91
78896;HTU21D;68284;59.124;37.910;2023-07-31T08:26:33;25.66;53.04
78896;HTU21D;68284;59.124;37.910;2023-07-31T08:29:00;25.75;52.73
78896;HTU21D;68284;59.124;37.910;2023-07-31T08:31:27;25.75;52.47
78896;HTU21D;68284;59.124;37.910;2023-07-31T08:33:56;25.73;52.57
78896;HTU21D;68284;59.124;37.910;2023-07-31T08:36:25;25.69;52.24
78896;HTU21D;68284;59.124;37.910;2023-07-31T08:38:52;25.61;52.30
78896;HTU21D;68284;59.124;37.910;2023-07-31T08:41:21;25.52;52.17
78896;HTU21D;68284;59.124;37.910;2023-07-31T08:43:53;25.47;52.24
78896;HTU21D;68284;59.124;37.910;2023-07-31T08:46:23;25.48;52.33
78896;HTU21D;68284;59.124;37.910;2023-07-31T08:48:51;25.52;52.27
78896;HTU21D;68284;59.124;37.910;2023-07-31T08:51:19;25.50;52.21
78896;HTU21D;68284;59.124;37.910;2023-07-31T08:53:45;25.49;52.08
78896;HTU21D;68284;59.124;37.910;2023-07-31T08:56:13;25.56;51.93
78896;HTU21D;68284;59.124;37.910;2023-07-31T08:58:41;25.73;51.91
78896;HTU21D;68284;59.124;37.910;2023-07-31T09:01:09;25.86;51.66
78896;HTU21D;68284;59.124;37.910;2023-07-31T09:03:40;25.99;51.34
78896;HTU21D;68284;59.124;37.910;2023-07-31T09:06:16;26.04;50.81
78896;HTU21D;68284;59.124;37.910;2023-07-31T09:09:06;26.01;50.56
78896;HTU21D;68284;59.124;37.910;2023-07-31T09:11:37;26.01;50.56
78896;HTU21D;68284;59.124;37.910;2023-07-31T09:14:22;25.98;50.80
78896;HTU21D;68284;59.124;37.910;2023-07-31T09:17:08;25.97;50.61
78896;HTU21D;68284;59.124;37.910;2023-07-31T09:20:11;25.95;50.15
78896;HTU21D;68284;59.124;37.910;2023-07-31T09:22:42;25.98;50.01
78896;HTU21D;68284;59.124;37.910;2023-07-31T09:25:29;26.03;50.29
78896;HTU21D;68284;59.124;37.910;2023-07-31T09:28:22;26.11;49.95
78896;HTU21D;68284;59.124;37.910;2023-07-31T09:31:11;26.12;49.64
78896;HTU21D;68284;59.124;37.910;2023-07-31T09:34:04;26.10;49.76
78896;HTU21D;68284;59.124;37.910;2023-07-31T09:36:52;26.08;49.82
78896;HTU21D;68284;59.124;37.910;2023-07-31T09:39:20;26.02;49.78
78896;HTU21D;68284;59.124;37.910;2023-07-31T09:41:54;25.92;49.72
78896;HTU21D;68284;59.124;37.910;2023-07-31T09:44:20;25.74;49.43
78896;HTU21D;68284;59.124;37.910;2023-07-31T09:46:59;25.59;50.16
78896;HTU21D;68284;59.124;37.910;2023-07-31T09:49:33;25.51;50.18
78896;HTU21D;68284;59.124;37.910;2023-07-31T09:52:15;25.45;50.49
78896;HTU21D;68284;59.124;37.910;2023-07-31T09:54:55;25.46;51.03
78896;HTU21D;68284;59.124;37.910;2023-07-31T09:57:23;25.48;50.81
78896;HTU21D;68284;59.124;37.910;2023-07-31T09:59:59;25.48;50.92
78896;HTU21D;68284;59.124;37.910;2023-07-31T10:02:28;25.51;51.90
78896;HTU21D;68284;59.124;37.910;2023-07-31T10:04:57;25.57;52.27
78896;HTU21D;68284;59.124;37.910;2023-07-31T10:07:55;25.64;53.34
78896;HTU21D;68284;59.124;37.910;2023-07-31T10:10:23;25.71;53.85
78896;HTU21D;68284;59.124;37.910;2023-07-31T10:12:55;25.80;53.49
78896;HTU21D;68284;59.124;37.910;2023-07-31T10:15:23;25.82;53.86
78896;HTU21D;68284;59.124;37.910;2023-07-31T10:17:53;25.83;53.97
78896;HTU21D;68284;59.124;37.910;2023-07-31T10:20:23;25.79;53.14
78896;HTU21D;68284;59.124;37.910;2023-07-31T10:22:57;25.77;54.23
78896;HTU21D;68284;59.124;37.910;2023-07-31T10:25:53;25.76;54.81
78896;HTU21D;68284;59.124;37.910;2023-07-31T10:28:32;25.81;54.90
78896;HTU21D;68284;59.124;37.910;2023-07-31T10:31:43;25.84;54.99
78896;HTU21D;68284;59.124;37.910;2023-07-31T10:34:41;25.86;55.05
78896;HTU21D;68284;59.124;37.910;2023-07-31T10:37:24;25.86;55.20
78896;HTU21D;68284;59.124;37.910;2023-07-31T10:40:06;25.87;54.04
78896;HTU21D;68284;59.124;37.910;2023-07-31T10:42:56;25.87;53.43
78896;HTU21D;68284;59.124;37.910;2023-07-31T10:45:55;26.04;52.90
78896;HTU21D;68284;59.124;37.910;2023-07-31T10:48:24;26.35;51.87
78896;HTU21D;68284;59.124;37.910;2023-07-31T10:50:55;26.61;50.99
78896;HTU21D;68284;59.124;37.910;2023-07-31T10:53:24;26.73;51.28
78896;HTU21D;68284;59.124;37.910;2023-07-31T10:55:58;26.82;51.24
78896;HTU21D;68284;59.124;37.910;2023-07-31T10:58:25;26.95;50.27
78896;HTU21D;68284;59.124;37.910;2023-07-31T11:01:03;27.06;49.40
78896;HTU21D;68284;59.124;37.910;2023-07-31T11:03:46;27.07;48.86
78896;HTU21D;68284;59.124;37.910;2023-07-31T11:06:13;27.05;48.53
78896;HTU21D;68284;59.124;37.910;2023-07-31T11:08:47;27.06;48.29
78896;HTU21D;68284;59.124;37.910;2023-07-31T11:11:19;27.06;48.57
78896;HTU21D;68284;59.124;37.910;2023-07-31T11:14:05;27.05;48.54
78896;HTU21D;68284;59.124;37.910;2023-07-31T11:16:38;27.05;48.57
78896;HTU21D;68284;59.124;37.910;2023-07-31T11:19:10;26.96;48.66
78896;HTU21D;68284;59.124;37.910;2023-07-31T11:21:37;26.85;48.61
78896;HTU21D;68284;59.124;37.910;2023-07-31T11:24:29;26.67;48.07
78896;HTU21D;68284;59.124;37.910;2023-07-31T11:26:56;26.50;49.06
78896;HTU21D;68284;59.124;37.910;2023-07-31T11:29:29;26.37;48.66
78896;HTU21D;68284;59.124;37.910;2023-07-31T11:32:01;26.22;48.68
78896;HTU21D;68284;59.124;37.910;2023-07-31T11:34:29;26.11;49.83
78896;HTU21D;68284;59.124;37.910;2023-07-31T11:37:00;26.09;49.63
78896;HTU21D;68284;59.124;37.910;2023-07-31T11:40:04;26.06;50.03
78896;HTU21D;68284;59.124;37.910;2023-07-31T11:42:34;26.04;50.47
78896;HTU21D;68284;59.124;37.910;2023-07-31T11:45:06;26.10;50.29
78896;HTU21D;68284;59.124;37.910;2023-07-31T11:47:33;26.19;49.87
78896;HTU21D;68284;59.124;37.910;2023-07-31T11:50:05;26.30;49.52
78896;HTU21D;68284;59.124;37.910;2023-07-31T11:52:41;26.36;49.16
78896;HTU21D;68284;59.124;37.910;2023-07-31T11:55:17;26.40;49.61
78896;HTU21D;68284;59.124;37.910;2023-07-31T11:57:48;26.53;49.45
78896;HTU21D;68284;59.124;37.910;2023-07-31T12:00:15;26.67;49.73
78896;HTU21D;68284;59.124;37.910;2023-07-31T12:02:47;26.84;49.95
78896;HTU21D;68284;59.124;37.910;2023-07-31T12:05:41;26.95;49.76
78896;HTU21D;68284;59.124;37.910;2023-07-31T12:08:12;27.02;49.90
78896;HTU21D;68284;59.124;37.910;2023-07-31T12:10:40;27.20;49.88
78896;HTU21D;68284;59.124;37.910;2023-07-31T12:13:25;27.42;50.00
78896;HTU21D;68284;59.124;37.910;2023-07-31T12:16:14;27.80;49.34
78896;HTU21D;68284;59.124;37.910;2023-07-31T12:18:46;28.12;48.49
78896;HTU21D;68284;59.124;37.910;2023-07-31T12:21:43;28.59;47.22
78896;HTU21D;68284;59.124;37.910;2023-07-31T12:24:11;28.95;46.27
78896;HTU21D;68284;59.124;37.910;2023-07-31T12:26:39;29.35;45.48
78896;HTU21D;68284;59.124;37.910;2023-07-31T12:29:52;29.94;44.37
78896;HTU21D;68284;59.124;37.910;2023-07-31T12:32:23;30.10;43.25
78896;HTU21D;68284;59.124;37.910;2023-07-31T12:35:01;30.13;42.92
78896;HTU21D;68284;59.124;37.910;2023-07-31T12:37:38;30.22;42.71
78896;HTU21D;68284;59.124;37.910;2023-07-31T12:40:38;30.49;42.26
78896;HTU21D;68284;59.124;37.910;2023-07-31T12:43:07;30.81;41.87
78896;HTU21D;68284;59.124;37.910;2023-07-31T12:45:34;31.27;40.81
78896;HTU21D;68284;59.124;37.910;2023-07-31T12:48:02;31.60;39.99
78896;HTU21D;68284;59.124;37.910;2023-07-31T12:50:31;31.75;39.25
78896;HTU21D;68284;59.124;37.910;2023-07-31T12:52:57;31.85;39.35
78896;HTU21D;68284;59.124;37.910;2023-07-31T12:55:47;32.09;38.79
78896;HTU21D;68284;59.124;37.910;2023-07-31T12:58:29;32.49;38.11
78896;HTU21D;68284;59.124;37.910;2023-07-31T13:01:03;32.94;37.09
78896;HTU21D;68284;59.124;37.910;2023-07-31T13:04:20;33.49;35.88
78896;HTU21D;68284;59.124;37.910;2023-07-31T13:06:47;33.89;35.12
78896;HTU21D;68284;59.124;37.910;2023-07-31T13:09:15;34.11;34.56
78896;HTU21D;68284;59.124;37.910;2023-07-31T13:11:47;34.27;34.14
78896;HTU21D;68284;59.124;37.910;2023-07-31T13:14:16;34.50;33.69
78896;HTU21D;68284;59.124;37.910;2023-07-31T13:16:43;34.77;33.27
78896;HTU21D;68284;59.124;37.910;2023-07-31T13:19:10;35.05;33.02
78896;HTU21D;68284;59.124;37.910;2023-07-31T13:21:54;35.39;32.41
78896;HTU21D;68284;59.124;37.910;2023-07-31T13:24:22;35.87;31.60
78896;HTU21D;68284;59.124;37.910;2023-07-31T13:26:56;36.44;30.67
78896;HTU21D;68284;59.124;37.910;2023-07-31T13:29:28;36.78;30.03
78896;HTU21D;68284;59.124;37.910;2023-07-31T13:31:57;36.78;29.72
78896;HTU21D;68284;59.124;37.910;2023-07-31T13:34:23;36.46;29.79
78896;HTU21D;68284;59.124;37.910;2023-07-31T13:36:50;35.96;30.34
78896;HTU21D;68284;59.124;37.910;2023-07-31T13:39:16;35.49;30.93
78896;HTU21D;68284;59.124;37.910;2023-07-31T13:41:43;35.22;31.30
78896;HTU21D;68284;59.124;37.910;2023-07-31T13:44:11;35.28;31.25
78896;HTU21D;68284;59.124;37.910;2023-07-31T13:46:42;35.12;31.34
78896;HTU21D;68284;59.124;37.910;2023-07-31T13:49:10;35.06;31.32
78896;HTU21D;68284;59.124;37.910;2023-07-31T13:51:38;35.09;31.06
78896;HTU21D;68284;59.124;37.910;2023-07-31T13:54:10;34.90;31.12
78896;HTU21D;68284;59.124;37.910;2023-07-31T13:56:38;34.40;32.04
78896;HTU21D;68284;59.124;37.910;2023-07-31T13:59:05;33.75;32.96
78896;HTU21D;68284;59.124;37.910;2023-07-31T14:01:33;33.09;33.71
78896;HTU21D;68284;59.124;37.910;2023-07-31T14:04:10;32.39;34.60
78896;HTU21D;68284;59.124;37.910;2023-07-31T14:06:49;31.76;35.85
78896;HTU21D;68284;59.124;37.910;2023-07-31T14:09:18;31.34;36.93
78896;HTU21D;68284;59.124;37.910;2023-07-31T14:11:45;30.97;37.80
78896;HTU21D;68284;59.124;37.910;2023-07-31T14:14:11;30.62;38.55
78896;HTU21D;68284;59.124;37.910;2023-07-31T14:16:41;30.24;39.49
78896;HTU21D;68284;59.124;37.910;2023-07-31T14:19:07;29.98;40.05
78896;HTU21D;68284;59.124;37.910;2023-07-31T14:21:36;30.09;40.08
78896;HTU21D;68284;59.124;37.910;2023-07-31T14:24:03;30.24;39.92
78896;HTU21D;68284;59.124;37.910;2023-07-31T14:26:31;30.36;39.58
78896;HTU21D;68284;59.124;37.910;2023-07-31T14:29:02;30.60;39.17
78896;HTU21D;68284;59.124;37.910;2023-07-31T14:31:37;31.07;38.30
78896;HTU21D;68284;59.124;37.910;2023-07-31T14:34:26;31.25;37.96
78896;HTU21D;68284;59.124;37.910;2023-07-31T14:36:52;31.10;38.08
78896;HTU21D;68284;59.124;37.910;2023-07-31T14:39:21;30.83;38.38
78896;HTU21D;68284;59.124;37.910;2023-07-31T14:41:47;30.48;38.94
78896;HTU21D;68284;59.124;37.910;2023-07-31T14:44:16;30.08;39.56
78896;HTU21D;68284;59.124;37.910;2023-07-31T14:46:47;29.67;40.33
78896;HTU21D;68284;59.124;37.910;2023-07-31T14:49:14;29.31;40.97
78896;HTU21D;68284;59.124;37.910;2023-07-31T14:51:41;28.98;41.76
78896;HTU21D;68284;59.124;37.910;2023-07-31T14:54:08;28.67;42.56
78896;HTU21D;68284;59.124;37.910;2023-07-31T14:56:37;28.43;43.21
78896;HTU21D;68284;59.124;37.910;2023-07-31T14:59:16;28.20;43.66
78896;HTU21D;68284;59.124;37.910;2023-07-31T15:01:43;28.10;44.03
78896;HTU21D;68284;59.124;37.910;2023-07-31T15:04:09;28.29;44.03
78896;HTU21D;68284;59.124;37.910;2023-07-31T15:06:37;28.91;43.37
78896;HTU21D;68284;59.124;37.910;2023-07-31T15:09:22;29.83;42.84
78896;HTU21D;68284;59.124;37.910;2023-07-31T15:11:52;30.46;41.64
78896;HTU21D;68284;59.124;37.910;2023-07-31T15:14:35;30.68;40.94
78896;HTU21D;68284;59.124;37.910;2023-07-31T15:17:12;30.49;41.48
78896;HTU21D;68284;59.124;37.910;2023-07-31T15:19:51;30.20;41.62
78896;HTU21D;68284;59.124;37.910;2023-07-31T15:22:21;29.86;41.78
78896;HTU21D;68284;59.124;37.910;2023-07-31T15:24:49;29.49;42.12
78896;HTU21D;68284;59.124;37.910;2023-07-31T15:27:31;29.13;42.68
78896;HTU21D;68284;59.124;37.910;2023-07-31T15:30:25;28.77;43.38
78896;HTU21D;68284;59.124;37.910;2023-07-31T15:36:51;28.32;44.25
78896;HTU21D;68284;59.124;37.910;2023-07-31T15:39:19;28.28;44.53
78896;HTU21D;68284;59.124;37.910;2023-07-31T15:41:50;28.47;44.56